Time;durP1;ratioP1;P1;durP2;ratioP2;P2;SDS_P1;SDS_P2;PMS_P1;PMS_P2;Temp;Humidity;BMP_temperature;BMP_pressure;BME280_temperature;BME280_humidity;BME280_pressure;Samples;Min_cycle;Max_cycle;Signal;HPM_P1;HPM_P2
2022/07/22 00:00:37;;;;;;;11.57;7.40;;;;;;;13.52;100.00;93547.66;2124010;27;20045;-69
2022/07/22 00:01:38;;;;;;;9.32;7.35;;;;;;;13.55;100.00;93555.63;2124370;27;20361;-69
2022/07/22 00:02:39;;;;;;;9.57;8.10;;;;;;;13.54;100.00;93548.75;2124047;27;20453;-68
2022/07/22 00:03:40;;;;;;;9.52;7.75;;;;;;;13.37;100.00;93547.25;2123710;27;20099;-68
2022/07/22 00:04:41;;;;;;;8.60;7.70;;;;;;;13.46;100.00;93539.34;2123338;27;20039;-69
2022/07/22 00:05:42;;;;;;;9.80;7.72;;;;;;;13.48;100.00;93547.00;2124009;27;20475;-68
2022/07/22 00:06:43;;;;;;;10.80;7.45;;;;;;;13.48;100.00;93552.38;2125040;27;20117;-68
2022/07/22 00:07:44;;;;;;;8.27;7.00;;;;;;;13.41;100.00;93547.94;2124008;27;20110;-68
2022/07/22 00:08:45;;;;;;;9.20;7.25;;;;;;;13.48;100.00;93547.00;2123582;27;20039;-68
2022/07/22 00:09:45;;;;;;;8.23;7.38;;;;;;;13.57;100.00;93544.47;2114292;27;20188;-67
2022/07/22 00:10:47;;;;;;;8.52;6.93;;;;;;;13.43;100.00;93552.88;2114785;27;20024;-68
2022/07/22 00:11:48;;;;;;;10.07;7.35;;;;;;;13.47;100.00;93551.59;2124365;27;20479;-69
2022/07/22 00:12:49;;;;;;;8.40;7.55;;;;;;;13.42;100.00;93551.38;2124015;27;20038;-67
2022/07/22 00:13:50;;;;;;;9.90;8.18;;;;;;;13.40;100.00;93546.44;2123647;27;20041;-71
2022/07/22 00:14:51;;;;;;;9.20;7.82;;;;;;;13.42;100.00;93552.13;2123311;27;20029;-67
2022/07/22 00:15:52;;;;;;;9.07;7.85;;;;;;;13.42;100.00;93552.13;2123787;27;20049;-69
2022/07/22 00:16:53;;;;;;;10.00;7.40;;;;;;;13.35;100.00;93553.06;2124212;27;20026;-68
2022/07/22 00:17:54;;;;;;;8.57;7.20;;;;;;;13.41;100.00;93550.63;2124200;27;20035;-69
2022/07/22 00:18:55;;;;;;;8.60;7.35;;;;;;;13.29;100.00;93551.31;2122919;27;20027;-69
2022/07/22 00:19:56;;;;;;;8.65;7.15;;;;;;;13.35;100.00;93555.00;2124306;27;20030;-68
2022/07/22 00:20:57;;;;;;;7.75;6.95;;;;;;;13.48;100.00;93545.06;2123395;27;20072;-68
2022/07/22 00:21:58;;;;;;;10.70;7.65;;;;;;;13.45;100.00;93537.09;2124230;27;20148;-68
2022/07/22 00:22:59;;;;;;;8.48;7.65;;;;;;;13.33;100.00;93541.22;2123983;27;20035;-69
2022/07/22 00:24:00;;;;;;;10.90;7.60;;;;;;;13.27;100.00;93543.69;2121728;27;20069;-69
2022/07/22 00:25:01;;;;;;;8.70;7.30;;;;;;;13.34;100.00;93545.41;2113809;28;20084;-69
2022/07/22 00:26:02;;;;;;;8.48;7.65;;;;;;;13.31;100.00;93541.66;2113562;27;20027;-68
2022/07/22 00:27:03;;;;;;;15.57;8.07;;;;;;;13.32;100.00;93539.72;2122883;27;20024;-68
2022/07/22 00:28:04;;;;;;;7.80;7.00;;;;;;;13.29;100.00;93543.25;2122460;27;20031;-68
2022/07/22 00:29:05;;;;;;;9.18;7.47;;;;;;;13.31;100.00;93543.59;2121718;27;20380;-70
2022/07/22 00:30:07;;;;;;;8.65;7.53;;;;;;;13.31;100.00;93538.22;2122852;27;20015;-68
2022/07/22 00:31:07;;;;;;;8.48;7.57;;;;;;;13.22;100.00;93538.81;2123181;27;20019;-68
2022/07/22 00:32:08;;;;;;;9.18;8.05;;;;;;;13.26;100.00;93536.81;2122773;27;20088;-70
2022/07/22 00:33:09;;;;;;;12.75;7.70;;;;;;;13.27;100.00;93535.63;2121878;27;20034;-70
2022/07/22 00:34:10;;;;;;;8.25;7.45;;;;;;;13.20;100.00;93535.00;2122179;27;20093;-70
2022/07/22 00:35:11;;;;;;;8.90;7.78;;;;;;;13.21;100.00;93534.59;2124272;27;20092;-68
2022/07/22 00:36:12;;;;;;;8.27;7.35;;;;;;;13.15;100.00;93533.59;2113432;28;20035;-68
2022/07/22 00:37:13;;;;;;;8.85;7.85;;;;;;;13.16;100.00;93537.78;2113251;28;20028;-69
2022/07/22 00:38:15;;;;;;;8.57;7.65;;;;;;;13.06;100.00;93536.88;2122966;27;20035;-69
2022/07/22 00:39:16;;;;;;;12.13;8.27;;;;;;;13.15;100.00;93543.59;2122120;27;20023;-68
2022/07/22 00:40:17;;;;;;;9.05;8.02;;;;;;;13.15;100.00;93530.16;2122623;27;20038;-70
2022/07/22 00:41:18;;;;;;;9.77;7.68;;;;;;;13.04;100.00;93535.81;2122435;27;20034;-68
2022/07/22 00:42:19;;;;;;;13.13;8.23;;;;;;;13.02;100.00;93538.13;2123259;27;20147;-67
2022/07/22 00:43:20;;;;;;;9.88;8.23;;;;;;;13.09;100.00;93533.34;2121689;27;20038;-68
2022/07/22 00:44:21;;;;;;;10.73;8.15;;;;;;;13.11;100.00;93525.63;2122279;27;20019;-69
2022/07/22 00:45:22;;;;;;;8.85;7.95;;;;;;;13.16;100.00;93528.97;2122659;27;20099;-71
2022/07/22 00:46:23;;;;;;;9.80;7.82;;;;;;;13.05;100.00;93526.56;2122142;27;20058;-69
2022/07/22 00:47:24;;;;;;;11.18;7.95;;;;;;;12.99;100.00;93526.31;2122117;27;20035;-68
2022/07/22 00:48:25;;;;;;;9.70;7.50;;;;;;;12.99;100.00;93534.34;2123732;27;20072;-68
2022/07/22 00:49:26;;;;;;;11.15;8.45;;;;;;;13.01;100.00;93523.22;2122129;27;20039;-68
2022/07/22 00:50:27;;;;;;;9.60;7.80;;;;;;;12.85;100.00;93530.09;2122549;27;20131;-69
2022/07/22 00:51:30;;;;;;;9.25;7.28;;;;;;;12.93;100.00;93532.59;2112641;28;20035;-70
2022/07/22 00:52:32;;;;;;;8.32;7.30;;;;;;;12.91;100.00;93519.63;2114564;27;20027;-68
2022/07/22 00:53:33;;;;;;;8.20;7.20;;;;;;;12.94;100.00;93531.44;2122542;27;20102;-69
2022/07/22 00:54:37;;;;;;;9.93;8.15;;;;;;;12.91;100.00;93527.66;2123259;27;20068;-68
2022/07/22 00:55:38;;;;;;;8.82;8.00;;;;;;;12.90;100.00;93515.41;2122352;27;20047;-70
2022/07/22 00:56:39;;;;;;;10.07;8.13;;;;;;;12.81;100.00;93524.03;2122194;27;20031;-68
2022/07/22 00:57:42;;;;;;;9.63;8.20;;;;;;;12.89;100.00;93524.63;2112701;28;20176;-68
2022/07/22 00:58:44;;;;;;;9.88;8.30;;;;;;;12.98;100.00;93516.00;2113764;27;20080;-68
2022/07/22 00:59:45;;;;;;;8.32;7.50;;;;;;;12.90;100.00;93520.03;2120648;27;20106;-68
2022/07/22 01:00:46;;;;;;;9.35;8.15;;;;;;;12.84;100.00;93520.53;2121945;27;20030;-70
2022/07/22 01:01:47;;;;;;;9.85;7.82;;;;;;;12.94;100.00;93516.06;2122288;27;20480;-69
2022/07/22 01:02:48;;;;;;;11.50;8.40;;;;;;;12.93;100.00;93511.91;2122788;27;20042;-69
2022/07/22 01:03:49;;;;;;;10.73;7.80;;;;;;;12.89;100.00;93524.63;2122481;27;20073;-70
2022/07/22 01:04:50;;;;;;;10.27;8.48;;;;;;;12.85;100.00;93515.91;2121731;27;20437;-68
2022/07/22 01:05:52;;;;;;;9.02;7.90;;;;;;;12.79;100.00;93515.69;2122834;27;20071;-69
2022/07/22 01:06:53;;;;;;;9.63;7.85;;;;;;;12.90;100.00;93518.09;2122386;27;20442;-68
2022/07/22 01:07:54;;;;;;;9.80;8.20;;;;;;;12.89;100.00;93515.84;2113468;27;20065;-68
2022/07/22 01:08:56;;;;;;;8.68;7.70;;;;;;;12.73;100.00;93506.63;2104768;28;20512;-68
2022/07/22 01:09:57;;;;;;;11.23;7.25;;;;;;;12.80;100.00;93514.50;2113102;27;20038;-69
2022/07/22 01:11:12;;;;;;;8.90;7.93;;;;;;;12.77;100.00;93509.97;2122505;27;20023;-68
2022/07/22 01:12:14;;;;;;;8.70;7.70;;;;;;;12.80;100.00;93511.06;2122247;27;20542;-68
2022/07/22 01:13:15;;;;;;;10.30;7.95;;;;;;;12.88;100.00;93506.28;2121629;27;20038;-69
2022/07/22 01:14:16;;;;;;;10.15;7.97;;;;;;;12.79;100.00;93514.94;2122530;27;20023;-68
2022/07/22 01:15:17;;;;;;;9.00;8.10;;;;;;;12.78;100.00;93505.38;2122077;27;20360;-70
2022/07/22 01:16:19;;;;;;;10.68;7.88;;;;;;;12.87;100.00;93508.22;2122178;27;20023;-68
2022/07/22 01:17:20;;;;;;;10.82;7.80;;;;;;;12.75;100.00;93501.59;2121518;27;20050;-69
2022/07/22 01:18:21;;;;;;;8.88;7.97;;;;;;;12.74;100.00;93504.72;2122023;27;20290;-71
2022/07/22 01:19:22;;;;;;;8.35;7.55;;;;;;;12.79;100.00;93501.50;2122555;27;20050;-68
2022/07/22 01:20:23;;;;;;;9.68;7.88;;;;;;;12.74;100.00;93504.72;2122058;27;20034;-68
2022/07/22 01:21:24;;;;;;;9.75;8.25;;;;;;;12.68;100.00;93509.03;2122072;27;20023;-68
2022/07/22 01:22:26;;;;;;;11.98;9.13;;;;;;;12.79;100.00;93506.88;2121893;27;20035;-68
2022/07/22 01:23:28;;;;;;;10.35;8.55;;;;;;;12.74;100.00;93504.72;2122058;27;20038;-68
2022/07/22 01:24:29;;;;;;;12.43;8.15;;;;;;;12.71;100.00;93503.59;2122319;27;20103;-69
2022/07/22 01:25:30;;;;;;;10.38;7.63;;;;;;;12.76;100.00;93500.41;2120747;27;20104;-70
2022/07/22 01:26:33;;;;;;;12.45;8.88;;;;;;;12.75;100.00;93503.53;2113110;28;20020;-68
2022/07/22 01:27:34;;;;;;;9.02;8.13;;;;;;;12.77;100.00;93501.16;2113670;27;20061;-69
2022/07/22 01:28:35;;;;;;;12.88;9.10;;;;;;;12.82;100.00;93501.44;2122140;27;20252;-68
2022/07/22 01:29:36;;;;;;;9.73;8.65;;;;;;;12.69;100.00;93497.16;2121606;27;20031;-68
2022/07/22 01:31:09;;;;;;;8.50;7.60;;;;;;;12.81;100.00;93496.47;2122322;27;20030;-68
2022/07/22 01:32:10;;;;;;;8.45;7.57;;;;;;;12.65;100.00;93499.94;2121452;27;20072;-68
2022/07/22 01:33:11;;;;;;;13.73;8.38;;;;;;;12.63;100.00;93504.94;2122230;27;20100;-68
2022/07/22 01:34:12;;;;;;;10.15;8.30;;;;;;;12.63;100.00;93504.94;2122416;27;20027;-67
2022/07/22 01:35:13;;;;;;;8.95;8.07;;;;;;;12.62;100.00;93500.00;2121819;27;20450;-68
2022/07/22 01:36:14;;;;;;;11.75;8.48;;;;;;;12.67;100.00;93504.84;2122241;27;20015;-70
2022/07/22 01:37:15;;;;;;;10.48;8.48;;;;;;;12.71;100.00;93502.84;2122091;27;20061;-67
2022/07/22 01:38:16;;;;;;;9.48;8.48;;;;;;;12.60;100.00;93506.53;2122002;27;20027;-68
2022/07/22 01:39:17;;;;;;;8.18;7.38;;;;;;;12.66;100.00;93503.34;2122367;27;20019;-69
2022/07/22 01:40:18;;;;;;;9.35;8.45;;;;;;;12.74;100.00;93496.66;2121986;27;20027;-68
2022/07/22 01:41:19;;;;;;;9.55;7.57;;;;;;;12.66;100.00;93500.69;2122113;27;20080;-69
2022/07/22 01:42:20;;;;;;;9.90;8.35;;;;;;;12.68;100.00;93504.44;2122235;27;20039;-69
2022/07/22 01:43:21;;;;;;;8.98;8.07;;;;;;;12.71;100.00;93500.16;2121479;27;20115;-69
2022/07/22 01:44:22;;;;;;;9.35;8.10;;;;;;;12.74;100.00;93499.34;2123053;27;20035;-69
2022/07/22 01:45:23;;;;;;;8.98;7.90;;;;;;;12.71;100.00;93494.81;2122071;27;20497;-70
2022/07/22 01:46:24;;;;;;;11.15;8.50;;;;;;;12.67;100.00;93494.88;2121874;27;20019;-70
2022/07/22 01:47:25;;;;;;;10.57;7.90;;;;;;;12.68;100.00;93495.63;2121844;27;20460;-68
2022/07/22 01:48:26;;;;;;;9.90;8.30;;;;;;;12.81;100.00;93497.22;2121964;27;20023;-68
2022/07/22 01:49:27;;;;;;;8.73;7.68;;;;;;;12.72;100.00;93502.41;2122229;27;20027;-70
2022/07/22 01:50:28;;;;;;;8.48;7.53;;;;;;;12.76;100.00;93494.28;2121955;27;20031;-69
2022/07/22 01:51:29;;;;;;;9.73;8.68;;;;;;;12.68;100.00;93501.75;2121996;27;20122;-68
2022/07/22 01:52:30;;;;;;;9.00;8.00;;;;;;;12.61;100.00;93488.53;2121462;27;20027;-68
2022/07/22 01:53:31;;;;;;;9.10;8.20;;;;;;;12.74;100.00;93499.34;2122123;27;20452;-68
2022/07/22 01:54:32;;;;;;;10.35;7.93;;;;;;;12.72;100.00;93491.69;2122324;27;20050;-67
2022/07/22 01:55:33;;;;;;;8.95;8.05;;;;;;;12.57;100.00;93491.28;2121988;27;20381;-70
2022/07/22 01:56:34;;;;;;;10.77;8.50;;;;;;;12.60;100.00;93487.78;2121656;27;20456;-69
2022/07/22 01:57:38;;;;;;;10.13;8.48;;;;;;;12.64;100.00;93497.63;2121463;27;20034;-68
2022/07/22 01:58:39;;;;;;;10.80;8.73;;;;;;;12.58;100.00;93498.16;2121903;27;20035;-68
2022/07/22 01:59:40;;;;;;;9.07;8.15;;;;;;;12.57;100.00;93495.91;2121000;27;20027;-68
2022/07/22 02:00:41;;;;;;;14.98;8.50;;;;;;;12.54;100.00;93500.16;2122109;27;20042;-68
2022/07/22 02:01:42;;;;;;;11.45;8.45;;;;;;;12.55;100.00;93488.25;2121751;27;20038;-69
2022/07/22 02:02:43;;;;;;;9.30;8.27;;;;;;;12.50;100.00;93499.47;2122306;27;20066;-68
2022/07/22 02:03:44;;;;;;;10.07;8.50;;;;;;;12.44;100.00;93500.41;2121953;27;20031;-68
2022/07/22 02:04:45;;;;;;;8.95;8.05;;;;;;;12.50;100.00;93494.13;2121284;27;20345;-68
2022/07/22 02:05:46;;;;;;;11.20;8.57;;;;;;;12.48;100.00;93496.47;2113022;28;20497;-68
2022/07/22 02:06:47;;;;;;;12.32;8.48;;;;;;;12.53;100.00;93489.84;2113299;27;20027;-70
2022/07/22 02:07:48;;;;;;;10.65;8.57;;;;;;;12.57;100.00;93502.00;2122143;27;20042;-67
2022/07/22 02:08:49;;;;;;;8.90;8.00;;;;;;;12.58;100.00;93494.72;2121973;27;20219;-68
2022/07/22 02:09:50;;;;;;;9.40;8.10;;;;;;;12.62;100.00;93491.97;2121040;27;20122;-70
2022/07/22 02:10:51;;;;;;;10.02;8.32;;;;;;;12.60;100.00;93495.06;2112933;27;20516;-69
2022/07/22 02:11:52;;;;;;;9.65;8.27;;;;;;;12.45;100.00;93494.63;2112594;28;20036;-68
2022/07/22 02:14:28;;;;;;;;;;;;;;;12.26;100.00;93490.84;2142539;27;20539;-67
2022/07/22 02:15:29;;;;;;;13.93;7.57;;;;;;;12.33;100.00;93495.28;2140968;27;19927;-69
2022/07/22 02:16:30;;;;;;;10.52;8.63;;;;;;;12.30;100.00;93501.50;2138761;27;20030;-68
2022/07/22 02:17:35;;;;;;;9.00;8.05;;;;;;;12.22;100.00;93495.53;2141943;27;20468;-68
2022/07/22 02:18:36;;;;;;;9.48;8.48;;;;;;;12.14;100.00;93498.78;2138627;27;20043;-68
2022/07/22 02:19:37;;;;;;;10.00;8.68;;;;;;;12.16;100.00;93491.06;2131894;27;20488;-69
2022/07/22 02:20:38;;;;;;;9.32;8.20;;;;;;;12.14;100.00;93491.47;2132253;27;20082;-68
2022/07/22 02:21:39;;;;;;;9.65;8.65;;;;;;;12.21;100.00;93496.69;2140698;27;20027;-69
2022/07/22 02:22:40;;;;;;;10.02;9.02;;;;;;;12.29;100.00;93487.34;2141981;27;20022;-69
2022/07/22 02:23:40;;;;;;;9.38;8.27;;;;;;;12.34;100.00;93486.09;2139854;27;20490;-68
2022/07/22 02:24:41;;;;;;;10.90;9.20;;;;;;;12.34;100.00;93496.81;2140984;27;20109;-68
2022/07/22 02:25:43;;;;;;;11.23;8.88;;;;;;;12.31;100.00;93495.69;2141887;27;20041;-69
2022/07/22 02:26:43;;;;;;;12.32;8.77;;;;;;;12.15;100.00;93492.97;2141372;27;20082;-70
2022/07/22 02:27:44;;;;;;;9.45;8.45;;;;;;;12.24;100.00;93492.41;2141869;27;20026;-68
2022/07/22 02:28:46;;;;;;;11.98;8.82;;;;;;;12.20;100.00;93489.06;2141015;27;20038;-68
2022/07/22 02:29:47;;;;;;;9.88;8.15;;;;;;;12.24;100.00;93489.72;2131966;27;20045;-69
2022/07/22 02:30:47;;;;;;;10.43;8.48;;;;;;;12.30;100.00;93494.19;2132554;27;20821;-69
2022/07/22 02:31:49;;;;;;;9.88;8.60;;;;;;;12.27;100.00;93496.94;2139213;27;20036;-68
2022/07/22 02:32:50;;;;;;;11.60;9.27;;;;;;;12.27;100.00;93492.34;2141261;27;20120;-67
2022/07/22 02:33:51;;;;;;;12.68;8.90;;;;;;;12.17;100.00;93493.34;2139551;27;20035;-68
2022/07/22 02:34:52;;;;;;;10.15;8.52;;;;;;;12.13;100.00;93491.91;2140924;27;20074;-68
2022/07/22 02:35:53;;;;;;;11.57;8.73;;;;;;;12.14;100.00;93490.72;2141722;27;20014;-68
2022/07/22 02:36:55;;;;;;;8.77;7.82;;;;;;;12.13;100.00;93487.31;2139925;27;20018;-69
2022/07/22 02:37:56;;;;;;;10.57;8.82;;;;;;;12.14;100.00;93494.16;2140289;27;20030;-68
2022/07/22 02:38:57;;;;;;;15.02;8.70;;;;;;;12.17;100.00;93484.56;2141180;27;20040;-67
2022/07/22 02:39:58;;;;;;;11.32;8.90;;;;;;;12.15;100.00;93484.19;2141286;27;20023;-68
2022/07/22 02:40:59;;;;;;;10.30;8.48;;;;;;;12.16;100.00;93486.47;2141563;27;20029;-68
2022/07/22 02:42:00;;;;;;;9.63;8.63;;;;;;;12.05;100.00;93488.63;2139242;27;20113;-70
2022/07/22 02:43:01;;;;;;;10.77;8.82;;;;;;;12.02;100.00;93486.75;2140359;27;20027;-67
2022/07/22 02:44:03;;;;;;;10.90;8.40;;;;;;;12.12;100.00;93490.41;2141738;27;20082;-68
2022/07/22 02:45:05;;;;;;;9.80;8.48;;;;;;;12.05;100.00;93488.63;2140169;27;20025;-68
2022/07/22 02:46:05;;;;;;;10.00;9.00;;;;;;;12.08;100.00;93485.88;2140877;27;20033;-68
2022/07/22 02:47:06;;;;;;;12.25;8.70;;;;;;;12.07;100.00;93491.63;2140519;27;20018;-69
2022/07/22 02:48:07;;;;;;;11.38;8.20;;;;;;;12.04;100.00;93490.53;2140995;27;20137;-68
2022/07/22 02:49:08;;;;;;;12.57;9.23;;;;;;;12.13;100.00;93481.19;2141732;27;20029;-68
2022/07/22 02:50:09;;;;;;;9.43;8.50;;;;;;;11.95;100.00;93482.31;2139749;27;20027;-69
2022/07/22 02:51:10;;;;;;;11.45;8.65;;;;;;;11.99;100.00;93487.63;2131532;27;20030;-68
2022/07/22 02:52:11;;;;;;;10.98;8.73;;;;;;;12.04;100.00;93490.53;2129214;27;20034;-68
2022/07/22 02:53:12;;;;;;;10.88;9.15;;;;;;;11.92;100.00;93495.78;2131879;27;20457;-68
2022/07/22 02:54:13;;;;;;;11.00;8.25;;;;;;;11.93;100.00;93487.31;2132525;27;20075;-68
2022/07/22 02:55:14;;;;;;;9.88;8.57;;;;;;;11.97;100.00;93493.38;2138984;27;20424;-68
2022/07/22 02:56:17;;;;;;;13.57;9.18;;;;;;;12.00;100.00;93487.19;2140758;27;20026;-67
2022/07/22 02:57:17;;;;;;;11.35;9.02;;;;;;;11.98;100.00;93486.84;2140744;27;20071;-68
2022/07/22 02:58:19;;;;;;;9.55;8.57;;;;;;;12.03;100.00;93488.28;2140570;27;20030;-68
2022/07/22 02:59:19;;;;;;;13.32;8.88;;;;;;;12.00;100.00;93494.47;2140259;27;20118;-68
2022/07/22 03:00:20;;;;;;;13.55;8.57;;;;;;;12.00;100.00;93489.88;2139733;27;20042;-68
2022/07/22 03:01:21;;;;;;;11.48;8.98;;;;;;;11.92;100.00;93485.81;2140707;27;20033;-68
2022/07/22 03:02:22;;;;;;;10.02;9.02;;;;;;;11.98;100.00;93486.09;2141996;27;20431;-69
2022/07/22 03:03:23;;;;;;;11.07;8.50;;;;;;;12.01;100.00;93491.38;2141610;27;20029;-68
2022/07/22 03:04:24;;;;;;;9.82;8.63;;;;;;;11.88;100.00;93487.06;2141618;27;20032;-68
2022/07/22 03:05:25;;;;;;;11.38;8.63;;;;;;;11.89;100.00;93483.97;2139782;27;20022;-69
2022/07/22 03:06:26;;;;;;;10.27;8.98;;;;;;;11.95;100.00;93486.94;2138312;27;20079;-69
2022/07/22 03:07:27;;;;;;;10.02;8.80;;;;;;;11.94;100.00;93480.81;2141414;27;20018;-68
2022/07/22 03:08:30;;;;;;;10.20;9.20;;;;;;;11.78;100.00;93488.78;2140358;27;20063;-68
2022/07/22 03:09:31;;;;;;;12.45;8.43;;;;;;;11.77;100.00;93471.19;2140905;27;20367;-68
2022/07/22 03:10:32;;;;;;;11.52;8.90;;;;;;;11.90;100.00;93484.75;2140541;27;20027;-67
2022/07/22 03:11:33;;;;;;;10.75;9.52;;;;;;;11.96;100.00;93481.16;2139437;27;20027;-68
2022/07/22 03:12:34;;;;;;;10.48;9.13;;;;;;;11.93;100.00;93481.97;2132078;27;20026;-70
2022/07/22 03:13:35;;;;;;;9.73;8.63;;;;;;;12.01;100.00;93477.97;2130239;27;20023;-68
2022/07/22 03:14:36;;;;;;;10.35;8.85;;;;;;;11.96;100.00;93477.72;2131384;27;20374;-67
2022/07/22 03:15:36;;;;;;;11.85;9.05;;;;;;;12.00;100.00;93479.16;2132417;27;20085;-67
2022/07/22 03:16:38;;;;;;;10.52;8.90;;;;;;;11.95;100.00;93485.00;2131739;27;20046;-68
2022/07/22 03:17:39;;;;;;;9.90;8.85;;;;;;;11.82;100.00;93484.88;2133272;27;20023;-68
2022/07/22 03:18:41;;;;;;;10.68;8.70;;;;;;;11.91;100.00;93486.25;2131999;27;20102;-67
2022/07/22 03:19:42;;;;;;;12.02;8.40;;;;;;;11.92;100.00;93485.81;2133422;27;20106;-70
2022/07/22 03:20:43;;;;;;;9.88;8.88;;;;;;;11.86;100.00;93481.38;2133153;27;20444;-69
2022/07/22 03:21:44;;;;;;;10.35;8.65;;;;;;;11.86;100.00;93482.13;2130936;27;20037;-68
2022/07/22 03:22:45;;;;;;;12.23;8.75;;;;;;;11.92;100.00;93477.03;2132083;27;20035;-68
2022/07/22 03:23:46;;;;;;;10.25;9.07;;;;;;;11.92;100.00;93474.34;2130292;27;20508;-67
2022/07/22 03:24:47;;;;;;;12.27;9.30;;;;;;;11.77;100.00;93477.31;2131986;27;20039;-68
2022/07/22 03:25:48;;;;;;;12.57;9.27;;;;;;;11.82;100.00;93476.06;2126855;27;20476;-67
2022/07/22 03:26:49;;;;;;;9.73;8.73;;;;;;;11.88;100.00;93481.72;2125575;27;20521;-68
2022/07/22 03:27:50;;;;;;;12.73;10.23;;;;;;;11.74;100.00;93480.06;2126909;27;20031;-67
2022/07/22 03:28:51;;;;;;;12.15;8.80;;;;;;;11.72;100.00;93474.34;2123675;27;20797;-68
2022/07/22 03:29:52;;;;;;;9.52;8.48;;;;;;;11.81;100.00;93479.91;2124151;27;20027;-70
2022/07/22 03:30:54;;;;;;;9.48;8.60;;;;;;;11.86;100.00;93484.81;2126911;27;20023;-68
2022/07/22 03:31:55;;;;;;;11.27;9.80;;;;;;;11.88;100.00;93479.78;2125798;27;20027;-70
2022/07/22 03:32:56;;;;;;;10.35;9.30;;;;;;;11.95;100.00;93478.91;2127336;27;20035;-69
2022/07/22 03:33:57;;;;;;;10.43;8.90;;;;;;;11.93;100.00;93481.22;2123654;27;20035;-68
2022/07/22 03:34:58;;;;;;;11.80;9.50;;;;;;;11.88;100.00;93473.66;2125290;27;20376;-70
2022/07/22 03:35:58;;;;;;;11.43;8.90;;;;;;;11.83;100.00;93486.38;2127350;27;20023;-68
2022/07/22 03:36:59;;;;;;;10.90;9.27;;;;;;;11.78;100.00;93486.84;2125637;27;20483;-67
2022/07/22 03:38:20;;;;;;;10.20;9.07;;;;;;;11.78;100.00;93491.44;2124170;27;20046;-67
2022/07/22 03:39:21;;;;;;;10.48;9.30;;;;;;;11.65;100.00;93494.00;2125298;27;20027;-68
2022/07/22 03:40:22;;;;;;;10.73;9.30;;;;;;;11.66;100.00;93487.47;2126076;27;20033;-68
2022/07/22 03:41:23;;;;;;;10.18;9.07;;;;;;;11.66;100.00;93482.13;2125099;27;20094;-68
2022/07/22 03:42:24;;;;;;;10.57;8.63;;;;;;;11.67;100.00;93483.63;2125952;27;20031;-68
2022/07/22 03:43:25;;;;;;;11.88;9.85;;;;;;;11.64;100.00;93497.84;2126185;27;20047;-68
2022/07/22 03:44:26;;;;;;;12.32;9.07;;;;;;;11.58;100.00;93488.78;2115287;27;20043;-68
2022/07/22 03:45:27;;;;;;;10.00;8.98;;;;;;;11.69;100.00;93493.94;2125890;27;20122;-68
2022/07/22 03:46:28;;;;;;;12.85;9.65;;;;;;;11.67;100.00;93488.22;2126840;27;20019;-68
2022/07/22 03:47:28;;;;;;;11.52;9.23;;;;;;;11.67;100.00;93488.22;2124983;27;20022;-68
2022/07/22 03:48:29;;;;;;;9.63;8.63;;;;;;;11.71;100.00;93489.66;2125649;27;20236;-70
2022/07/22 03:49:31;;;;;;;10.05;9.05;;;;;;;11.76;100.00;93478.47;2126560;27;20022;-70
2022/07/22 03:50:32;;;;;;;12.20;8.35;;;;;;;11.66;100.00;93479.44;2125299;27;20360;-69
2022/07/22 03:51:33;;;;;;;11.80;9.30;;;;;;;11.70;100.00;93479.38;2126685;27;20037;-68
2022/07/22 03:52:34;;;;;;;10.32;9.32;;;;;;;11.75;100.00;93479.63;2125329;27;20431;-68
2022/07/22 03:53:36;;;;;;;12.82;9.05;;;;;;;11.80;100.00;93479.13;2124873;27;20038;-68
2022/07/22 03:54:37;;;;;;;15.15;9.43;;;;;;;11.72;100.00;93477.78;2126138;27;20050;-68
2022/07/22 03:55:37;;;;;;;11.32;9.18;;;;;;;11.76;100.00;93481.13;2123964;27;20030;-68
2022/07/22 03:56:39;;;;;;;10.68;8.88;;;;;;;11.80;100.00;93478.38;2126511;27;20027;-67
2022/07/22 03:57:40;;;;;;;10.50;9.40;;;;;;;11.79;100.00;93479.56;2125723;27;20033;-68
2022/07/22 03:58:41;;;;;;;11.07;9.25;;;;;;;11.69;100.00;93477.88;2125488;27;20038;-67
2022/07/22 03:59:41;;;;;;;13.88;8.93;;;;;;;11.72;100.00;93479.69;2125288;27;20030;-67
2022/07/22 04:00:42;;;;;;;10.13;8.65;;;;;;;11.76;100.00;93478.47;2125918;27;20039;-68
2022/07/22 04:01:43;;;;;;;9.90;8.70;;;;;;;11.83;100.00;93483.69;2127019;27;20031;-67
2022/07/22 04:02:44;;;;;;;10.80;9.70;;;;;;;11.80;100.00;93481.81;2126200;27;20046;-67
2022/07/22 04:03:45;;;;;;;12.45;9.25;;;;;;;11.72;100.00;93485.06;2125517;27;20054;-67
2022/07/22 04:04:46;;;;;;;11.77;9.43;;;;;;;11.63;100.00;93487.53;2124635;27;20358;-67
2022/07/22 04:05:47;;;;;;;10.30;8.88;;;;;;;11.64;100.00;93473.00;2124162;27;20028;-68
2022/07/22 04:06:51;;;;;;;11.52;9.43;;;;;;;11.69;100.00;93477.88;2126734;27;20121;-67
2022/07/22 04:07:51;;;;;;;12.85;9.68;;;;;;;11.74;100.00;93482.72;2126909;27;20034;-69
2022/07/22 04:08:54;;;;;;;10.98;9.48;;;;;;;11.67;100.00;93472.91;2124756;27;20018;-68
2022/07/22 04:10:04;;;;;;;10.20;8.60;;;;;;;11.75;100.00;93465.50;2125921;27;20027;-69
2022/07/22 04:11:05;;;;;;;10.75;8.95;;;;;;;11.72;100.00;93474.34;2124048;27;20033;-68
2022/07/22 04:12:06;;;;;;;11.88;9.43;;;;;;;11.72;100.00;93468.97;2122629;27;20050;-67
2022/07/22 04:13:07;;;;;;;10.55;8.85;;;;;;;11.81;100.00;93471.88;2125873;27;20025;-67
2022/07/22 04:14:08;;;;;;;14.88;9.70;;;;;;;11.79;100.00;93472.28;2131043;27;20042;-69
2022/07/22 04:15:09;;;;;;;13.50;9.18;;;;;;;11.80;100.00;93475.72;2134668;27;20023;-67
2022/07/22 04:16:10;;;;;;;9.45;8.52;;;;;;;11.82;100.00;93471.50;2134368;27;20026;-68
2022/07/22 04:17:12;;;;;;;13.60;8.85;;;;;;;11.75;100.00;93470.84;2124114;27;20420;-67
2022/07/22 04:18:13;;;;;;;11.65;9.50;;;;;;;11.79;100.00;93474.22;2126021;27;20063;-68
2022/07/22 04:19:14;;;;;;;10.20;8.90;;;;;;;11.75;100.00;93473.53;2134161;27;20086;-67
2022/07/22 04:20:15;;;;;;;11.50;9.27;;;;;;;11.85;100.00;93464.53;2132075;27;20507;-67
2022/07/22 04:21:16;;;;;;;16.17;9.93;;;;;;;11.84;100.00;93471.81;2132921;27;20049;-67
2022/07/22 04:22:17;;;;;;;13.40;9.40;;;;;;;11.87;100.00;93470.25;2134072;27;20031;-68
2022/07/22 04:23:18;;;;;;;12.85;9.30;;;;;;;11.92;100.00;93466.31;2136224;27;20061;-68
2022/07/22 04:24:19;;;;;;;12.63;8.93;;;;;;;11.94;100.00;93469.31;2123676;27;21320;-67
2022/07/22 04:25:20;;;;;;;14.18;9.40;;;;;;;11.94;100.00;93464.75;2118241;27;20035;-68
2022/07/22 04:26:22;;;;;;;11.43;9.93;;;;;;;11.95;100.00;93466.25;2134470;27;20109;-68
2022/07/22 04:27:23;;;;;;;10.35;9.30;;;;;;;11.97;100.00;93463.91;2146991;22;20064;-79
2022/07/22 04:28:24;;;;;;;10.73;9.63;;;;;;;11.99;100.00;93466.19;2098199;28;20041;-78
2022/07/22 04:29:25;;;;;;;10.43;9.45;;;;;;;11.99;100.00;93464.25;2089094;28;20020;-79
2022/07/22 04:30:27;;;;;;;11.38;9.57;;;;;;;12.02;100.00;93463.41;2072962;28;20525;-78
2022/07/22 04:31:28;;;;;;;11.80;9.88;;;;;;;12.04;100.00;93469.13;2087582;28;20022;-78
2022/07/22 04:32:30;;;;;;;11.90;10.07;;;;;;;11.97;100.00;93458.53;2089186;28;20028;-78
2022/07/22 04:33:31;;;;;;;9.98;8.90;;;;;;;11.95;100.00;93463.56;2073032;28;20981;-78
2022/07/22 04:34:32;;;;;;;10.93;9.38;;;;;;;12.03;100.00;93456.16;2079075;28;20022;-79
2022/07/22 04:35:33;;;;;;;13.27;10.13;;;;;;;12.07;100.00;93462.94;2081106;28;20036;-79
2022/07/22 04:36:34;;;;;;;10.93;9.18;;;;;;;12.05;100.00;93457.22;2072661;28;20060;-79
2022/07/22 04:37:34;;;;;;;11.13;9.93;;;;;;;12.13;100.00;93462.44;2068434;28;20037;-78
2022/07/22 04:38:35;;;;;;;12.70;10.80;;;;;;;12.12;100.00;93467.03;2088536;28;20028;-79
2022/07/22 04:39:36;;;;;;;11.80;10.30;;;;;;;12.17;100.00;93460.44;2089101;28;20183;-78
2022/07/22 04:40:37;;;;;;;13.13;10.77;;;;;;;12.15;100.00;93462.75;2080824;28;20033;-78
2022/07/22 04:41:38;;;;;;;12.10;10.27;;;;;;;12.18;100.00;93464.63;2080883;28;20034;-79
2022/07/22 04:42:39;;;;;;;12.35;10.73;;;;;;;12.18;100.00;93467.28;2082830;28;20020;-78
2022/07/22 04:43:40;;;;;;;12.82;10.75;;;;;;;12.19;100.00;93468.78;2081383;28;20124;-78
2022/07/22 04:44:44;;;;;;;15.05;11.25;;;;;;;12.19;100.00;93464.19;2072641;28;20042;-79